createdAt,value
2018-03-31T00:00:08.464Z,63.68
2018-03-31T00:01:12.556Z,63.85
2018-03-31T00:02:16.618Z,63.85
2018-03-31T00:03:21.461Z,63.85
2018-03-31T00:04:25.519Z,63.86
2018-03-31T00:05:30.365Z,63.83
2018-03-31T00:06:35.219Z,63.81
2018-03-31T00:07:39.287Z,63.81
2018-03-31T00:08:44.123Z,63.75
2018-03-31T00:09:48.174Z,63.63
2018-03-31T00:10:52.235Z,63.48
2018-03-31T00:11:56.315Z,63.41
2018-03-31T00:13:00.396Z,63.51
2018-03-31T00:14:05.220Z,63.55
2018-03-31T00:15:10.054Z,63.46
2018-03-31T00:16:14.877Z,63.38
2018-03-31T00:17:19.734Z,63.34
2018-03-31T00:18:23.793Z,63.29
2018-03-31T00:19:28.624Z,63.21
2018-03-31T00:20:32.676Z,63.11
2018-03-31T00:21:36.732Z,63.12
2018-03-31T00:22:43.279Z,62.96
2018-03-31T00:23:48.115Z,63.02
2018-03-31T00:24:52.171Z,63.09
2018-03-31T00:25:57.441Z,63.01
2018-03-31T00:27:01.493Z,62.90
2018-03-31T00:28:05.596Z,63.06
2018-03-31T00:29:09.652Z,62.93
2018-03-31T00:30:13.711Z,62.80
2018-03-31T00:31:17.786Z,62.79
2018-03-31T00:32:21.846Z,62.73
2018-03-31T00:33:26.772Z,62.62
2018-03-31T00:34:31.609Z,62.79
2018-03-31T00:35:35.662Z,62.71
2018-03-31T00:36:39.749Z,62.62
2018-03-31T00:37:44.000Z,62.77
2018-03-31T00:38:48.094Z,62.65
2018-03-31T00:39:52.912Z,62.67
2018-03-31T00:40:57.746Z,62.47
2018-03-31T00:42:01.797Z,62.42
2018-03-31T00:43:05.862Z,62.44
2018-03-31T00:44:09.956Z,62.46
2018-03-31T00:45:14.019Z,62.48
2018-03-31T00:46:18.866Z,62.38
2018-03-31T00:47:22.944Z,62.31
2018-03-31T00:48:27.772Z,62.16
2018-03-31T00:49:32.620Z,62.36
2018-03-31T00:50:36.677Z,62.50
2018-03-31T00:51:40.740Z,62.57
2018-03-31T00:52:44.847Z,62.62
2018-03-31T00:53:48.932Z,62.70
2018-03-31T00:54:53.015Z,62.69
2018-03-31T00:55:57.846Z,62.49
2018-03-31T00:57:01.899Z,62.20
2018-03-31T00:58:05.954Z,62.23
2018-03-31T00:59:10.012Z,62.37
2018-03-31T01:00:14.090Z,62.29
2018-03-31T01:02:36.266Z,62.37
2018-03-31T01:03:41.106Z,62.39
2018-03-31T01:04:45.156Z,62.38
2018-03-31T01:05:49.220Z,62.48
2018-03-31T01:06:53.304Z,62.69
2018-03-31T01:07:57.368Z,62.68
2018-03-31T01:09:01.424Z,62.82
2018-03-31T01:10:05.515Z,62.98
2018-03-31T01:11:09.592Z,62.96
2018-03-31T01:12:14.419Z,63.05
2018-03-31T01:13:19.058Z,63.16
2018-03-31T01:14:23.385Z,63.15
2018-03-31T01:15:27.436Z,63.07
2018-03-31T01:16:32.299Z,62.98
2018-03-31T01:17:36.357Z,63.06
2018-03-31T01:18:40.420Z,63.13
2018-03-31T01:19:44.480Z,63.21
2018-03-31T01:20:49.308Z,63.12
2018-03-31T01:21:53.600Z,63.20
2018-03-31T01:22:58.426Z,63.17
2018-03-31T01:24:02.537Z,63.24
2018-03-31T01:25:07.353Z,63.41
2018-03-31T01:26:12.172Z,63.44
2018-03-31T01:27:16.278Z,63.57
2018-03-31T01:28:21.103Z,63.53
2018-03-31T01:29:25.159Z,63.47
2018-03-31T01:30:29.236Z,63.58
2018-03-31T01:31:33.289Z,63.53
2018-03-31T01:32:38.146Z,63.70
2018-03-31T01:33:42.188Z,63.62
2018-03-31T01:34:46.281Z,63.76
2018-03-31T01:35:50.339Z,63.65
2018-03-31T01:36:54.395Z,63.63
2018-03-31T01:37:58.479Z,63.60
2018-03-31T01:39:02.532Z,63.51
2018-03-31T01:40:06.652Z,63.31
2018-03-31T01:41:11.668Z,63.26
2018-03-31T01:42:15.718Z,63.14
2018-03-31T01:43:19.801Z,63.01
2018-03-31T01:44:23.870Z,62.86
2018-03-31T01:45:27.937Z,62.95
2018-03-31T01:46:32.768Z,62.94
2018-03-31T01:47:37.594Z,62.99
2018-03-31T01:48:42.449Z,62.72
2018-03-31T01:49:46.501Z,62.48
2018-03-31T01:50:50.567Z,62.65
2018-03-31T01:51:54.636Z,62.77
2018-03-31T01:52:58.696Z,62.61
2018-03-31T01:54:02.772Z,62.71
2018-03-31T01:55:06.833Z,62.62
2018-03-31T01:56:10.900Z,62.50
2018-03-31T01:57:14.965Z,62.54
2018-03-31T01:58:19.029Z,62.56
2018-03-31T01:59:23.881Z,62.61
2018-03-31T02:00:28.706Z,62.71
2018-03-31T02:01:32.761Z,62.82
2018-03-31T02:02:37.618Z,62.70
2018-03-31T02:03:41.685Z,62.82
2018-03-31T02:04:46.546Z,62.94
2018-03-31T02:05:50.604Z,62.87
2018-03-31T02:06:55.464Z,62.93
2018-03-31T02:07:59.525Z,62.92
2018-03-31T02:09:04.356Z,62.86
2018-03-31T02:10:09.188Z,63.00
2018-03-31T02:11:13.254Z,62.77
2018-03-31T02:12:18.081Z,62.56
2018-03-31T02:13:22.136Z,62.41
2018-03-31T02:14:26.196Z,62.39
2018-03-31T02:15:31.054Z,62.40
2018-03-31T02:16:35.118Z,62.44
2018-03-31T02:17:39.945Z,62.52
2018-03-31T02:18:44.016Z,62.69
2018-03-31T02:19:48.080Z,62.67
2018-03-31T02:20:52.163Z,62.70
2018-03-31T02:21:56.233Z,62.80
2018-03-31T02:23:00.317Z,62.93
2018-03-31T02:24:04.402Z,63.23
2018-03-31T02:25:08.463Z,63.33
2018-03-31T02:26:13.305Z,63.48
2018-03-31T02:27:17.372Z,63.55
2018-03-31T02:28:22.192Z,63.75
2018-03-31T02:29:26.790Z,64.33
2018-03-31T02:30:30.853Z,64.73
2018-03-31T02:31:34.938Z,65.49
2018-03-31T02:32:38.993Z,65.67
2018-03-31T02:33:43.057Z,65.80
2018-03-31T02:34:47.145Z,65.81
2018-03-31T02:35:51.208Z,65.89
2018-03-31T02:36:56.470Z,65.90
2018-03-31T02:38:00.529Z,66.34
2018-03-31T02:39:04.597Z,66.37
2018-03-31T02:40:08.660Z,66.75
2018-03-31T02:41:13.486Z,67.32
2018-03-31T02:42:18.395Z,67.58
2018-03-31T02:43:22.215Z,67.78
2018-03-31T02:44:26.292Z,67.83
2018-03-31T02:45:31.117Z,68.08
2018-03-31T02:46:35.935Z,68.59
2018-03-31T02:47:40.784Z,68.69
2018-03-31T02:48:44.845Z,69.07
2018-03-31T02:49:49.685Z,69.13
2018-03-31T02:50:54.513Z,69.18
2018-03-31T02:51:58.569Z,69.23
2018-03-31T02:53:02.642Z,69.36
2018-03-31T02:54:06.705Z,69.55
2018-03-31T02:55:11.516Z,69.47
2018-03-31T02:56:16.338Z,70.03
2018-03-31T02:57:21.160Z,69.76
2018-03-31T02:58:26.000Z,70.06
2018-03-31T02:59:30.054Z,69.91
2018-03-31T03:00:34.108Z,70.14
2018-03-31T03:01:38.168Z,69.84
2018-03-31T03:02:42.228Z,69.97
2018-03-31T03:03:46.321Z,70.10
2018-03-31T03:04:50.391Z,70.16
2018-03-31T03:05:55.212Z,70.07
2018-03-31T03:07:00.042Z,69.96
2018-03-31T03:08:04.873Z,70.18
2018-03-31T03:09:08.957Z,70.25
2018-03-31T03:10:13.999Z,70.35
2018-03-31T03:11:18.085Z,70.48
2018-03-31T03:12:22.913Z,70.17
2018-03-31T03:13:27.734Z,70.19
2018-03-31T03:14:31.817Z,69.98
2018-03-31T03:15:35.874Z,69.80
2018-03-31T03:16:39.942Z,69.78
2018-03-31T03:17:43.996Z,69.83
2018-03-31T03:18:48.056Z,69.99
2018-03-31T03:19:52.146Z,70.47
2018-03-31T03:20:56.225Z,71.45
2018-03-31T03:22:00.050Z,72.20
2018-03-31T03:23:04.112Z,73.08
2018-03-31T03:24:08.178Z,74.58
2018-03-31T03:25:12.264Z,75.96
2018-03-31T03:26:16.321Z,76.98
2018-03-31T03:27:20.390Z,77.71
2018-03-31T03:28:24.444Z,78.18
2018-03-31T03:29:29.280Z,78.88
2018-03-31T03:30:33.429Z,80.29
2018-03-31T03:31:37.485Z,82.11
2018-03-31T03:32:41.553Z,84.16
2018-03-31T03:33:45.612Z,86.38
2018-03-31T03:34:49.682Z,88.57
2018-03-31T03:35:54.017Z,89.80
2018-03-31T03:36:58.076Z,90.76
2018-03-31T03:38:02.131Z,91.52
2018-03-31T03:39:06.213Z,91.98
2018-03-31T03:40:10.284Z,92.33
2018-03-31T03:41:15.130Z,92.66
2018-03-31T03:42:19.190Z,92.83
2018-03-31T03:43:23.260Z,92.91
2018-03-31T03:44:27.398Z,92.98
2018-03-31T03:45:31.508Z,93.00
2018-03-31T03:46:35.605Z,93.17
2018-03-31T03:47:40.460Z,93.19
2018-03-31T03:48:45.453Z,93.17
2018-03-31T03:49:50.277Z,93.29
2018-03-31T03:50:55.120Z,93.43
2018-03-31T03:51:59.192Z,93.64
2018-03-31T03:53:04.029Z,93.83
2018-03-31T03:54:08.113Z,93.95
2018-03-31T03:55:12.163Z,94.01
2018-03-31T03:56:16.220Z,94.03
2018-03-31T03:57:21.075Z,94.11
2018-03-31T03:58:25.164Z,94.09
2018-03-31T03:59:29.244Z,94.10
2018-03-31T04:00:34.810Z,93.97
2018-03-31T04:01:38.872Z,93.69
2018-03-31T04:02:42.968Z,93.69
2018-03-31T04:03:47.035Z,93.69
2018-03-31T04:04:51.105Z,93.70
2018-03-31T04:05:55.936Z,93.63
2018-03-31T04:06:59.773Z,93.49
2018-03-31T04:08:03.632Z,93.51
2018-03-31T04:09:07.700Z,93.51
2018-03-31T04:10:12.532Z,93.52
2018-03-31T04:11:17.422Z,93.49
2018-03-31T04:12:21.494Z,93.44
2018-03-31T04:13:25.597Z,93.36
2018-03-31T04:14:29.428Z,93.27
2018-03-31T04:15:34.252Z,93.19
2018-03-31T04:16:38.319Z,93.17
2018-03-31T04:17:42.378Z,93.14
2018-03-31T04:18:47.224Z,93.13
2018-03-31T04:19:51.288Z,93.05
2018-03-31T04:20:55.345Z,92.75
2018-03-31T04:21:59.408Z,92.39
2018-03-31T04:23:04.245Z,92.17
2018-03-31T04:24:08.332Z,92.17
2018-03-31T04:25:13.165Z,92.10
2018-03-31T04:26:17.226Z,91.75
2018-03-31T04:27:21.302Z,91.54
2018-03-31T04:28:25.366Z,91.46
2018-03-31T04:29:29.461Z,91.25
2018-03-31T04:30:34.290Z,90.92
2018-03-31T04:31:38.345Z,90.42
2018-03-31T04:32:42.400Z,90.30
2018-03-31T04:33:46.465Z,90.25
2018-03-31T04:34:51.317Z,90.21
2018-03-31T04:35:55.384Z,90.28
2018-03-31T04:37:00.217Z,90.28
2018-03-31T04:38:05.045Z,90.25
2018-03-31T04:39:09.125Z,90.17
2018-03-31T04:40:13.200Z,90.17
2018-03-31T04:41:17.273Z,90.12
2018-03-31T04:42:21.336Z,89.96
2018-03-31T04:43:26.165Z,89.84
2018-03-31T04:44:30.994Z,89.67
2018-03-31T04:45:35.093Z,89.54
2018-03-31T04:46:39.934Z,89.39
2018-03-31T04:47:44.001Z,89.42
2018-03-31T04:48:48.832Z,89.31
2018-03-31T04:49:53.666Z,88.94
2018-03-31T04:50:57.748Z,88.82
2018-03-31T04:52:02.349Z,88.75
2018-03-31T04:53:06.431Z,88.66
2018-03-31T04:54:10.264Z,88.77
2018-03-31T04:55:15.076Z,88.90
2018-03-31T04:56:19.932Z,88.80
2018-03-31T04:57:23.998Z,88.79
2018-03-31T04:58:28.829Z,88.82
2018-03-31T04:59:33.665Z,88.77
2018-03-31T05:00:37.729Z,88.85
2018-03-31T05:01:41.871Z,88.95
2018-03-31T05:02:45.965Z,89.25
2018-03-31T05:03:50.573Z,89.43
2018-03-31T05:04:55.169Z,89.43
2018-03-31T05:05:59.229Z,89.18
2018-03-31T05:07:03.080Z,88.78
2018-03-31T05:08:07.908Z,88.50
2018-03-31T05:09:12.741Z,88.32
2018-03-31T05:10:16.801Z,88.03
2018-03-31T05:11:20.864Z,87.93
2018-03-31T05:12:24.718Z,87.93
2018-03-31T05:13:29.540Z,87.75
2018-03-31T05:14:34.379Z,87.79
2018-03-31T05:15:38.213Z,87.83
2018-03-31T05:16:42.286Z,87.49
2018-03-31T05:17:46.382Z,87.29
2018-03-31T05:18:50.220Z,87.20
2018-03-31T05:19:54.278Z,87.22
2018-03-31T05:20:58.352Z,87.32
2018-03-31T05:22:02.424Z,87.18
2018-03-31T05:23:06.517Z,87.19
2018-03-31T05:24:10.597Z,87.56
2018-03-31T05:25:14.672Z,88.02
2018-03-31T05:26:19.560Z,88.20
2018-03-31T05:27:23.383Z,88.24
2018-03-31T05:28:28.233Z,88.29
2018-03-31T05:29:32.294Z,88.44
2018-03-31T05:30:36.346Z,88.50
2018-03-31T05:31:40.181Z,88.45
2018-03-31T05:32:44.238Z,88.06
2018-03-31T05:33:48.374Z,88.19
2018-03-31T05:34:52.433Z,88.14
2018-03-31T05:35:56.496Z,88.05
2018-03-31T05:37:01.095Z,88.00
2018-03-31T05:38:05.153Z,87.58
2018-03-31T05:39:09.265Z,87.20
2018-03-31T05:40:13.101Z,86.86
2018-03-31T05:41:17.947Z,86.73
2018-03-31T05:42:22.778Z,86.69
2018-03-31T05:43:28.125Z,86.62
2018-03-31T05:44:32.285Z,86.27
2018-03-31T05:45:36.354Z,85.96
2018-03-31T05:46:40.416Z,85.94
2018-03-31T05:47:45.254Z,85.72
2018-03-31T05:48:49.316Z,85.61
2018-03-31T05:49:53.409Z,85.67
2018-03-31T05:50:57.480Z,85.56
2018-03-31T05:52:01.544Z,85.66
2018-03-31T05:53:05.618Z,85.65
2018-03-31T05:54:09.896Z,85.45
2018-03-31T05:55:13.980Z,85.22
2018-03-31T05:56:18.049Z,84.96
2018-03-31T05:57:22.888Z,84.77
2018-03-31T05:58:26.958Z,84.68
2018-03-31T05:59:31.027Z,84.57
2018-03-31T06:00:35.102Z,84.58
2018-03-31T06:01:39.167Z,84.57
2018-03-31T06:02:43.999Z,84.45
2018-03-31T06:03:48.844Z,84.25
2018-03-31T06:04:52.910Z,84.13
2018-03-31T06:05:56.998Z,84.09
2018-03-31T06:07:01.054Z,83.96
2018-03-31T06:08:05.113Z,83.97
2018-03-31T06:09:09.338Z,83.93
2018-03-31T06:10:14.158Z,83.96
2018-03-31T06:11:18.260Z,83.88
2018-03-31T06:12:23.095Z,83.77
2018-03-31T06:13:27.170Z,83.78
2018-03-31T06:14:31.992Z,83.65
2018-03-31T06:15:36.056Z,83.57
2018-03-31T06:16:40.141Z,83.51
2018-03-31T06:17:44.202Z,83.45
2018-03-31T06:18:49.052Z,83.31
2018-03-31T06:19:53.117Z,83.10
2018-03-31T06:20:57.942Z,82.98
2018-03-31T06:22:02.036Z,82.89
2018-03-31T06:23:06.107Z,82.86
2018-03-31T06:24:10.176Z,82.73
2018-03-31T06:25:14.244Z,82.52
2018-03-31T06:26:19.088Z,82.37
2018-03-31T06:27:23.173Z,82.25
2018-03-31T06:28:28.031Z,82.23
2018-03-31T06:29:32.194Z,82.31
2018-03-31T06:30:36.468Z,82.22
2018-03-31T06:31:40.707Z,82.05
2018-03-31T06:32:45.568Z,81.76
2018-03-31T06:33:49.642Z,81.53
2018-03-31T06:34:53.719Z,81.53
2018-03-31T06:35:57.776Z,81.54
2018-03-31T06:37:01.836Z,81.49
2018-03-31T06:38:06.698Z,81.39
2018-03-31T06:39:10.763Z,81.41
2018-03-31T06:40:15.585Z,81.55
2018-03-31T06:41:20.425Z,81.72
2018-03-31T06:42:24.488Z,81.73
2018-03-31T06:43:29.344Z,81.70
2018-03-31T06:44:33.404Z,81.85
2018-03-31T06:45:38.236Z,81.76
2018-03-31T06:46:43.132Z,81.70
2018-03-31T06:47:48.119Z,81.80
2018-03-31T06:48:52.208Z,81.73
2018-03-31T06:49:56.375Z,81.42
2018-03-31T06:51:00.436Z,81.19
2018-03-31T06:52:04.579Z,81.24
2018-03-31T06:53:09.429Z,81.11
2018-03-31T06:54:14.464Z,80.98
2018-03-31T06:55:18.522Z,80.90
2018-03-31T06:56:22.348Z,80.92
2018-03-31T06:57:27.248Z,80.90
2018-03-31T06:58:31.307Z,80.93
2018-03-31T06:59:35.400Z,80.88
2018-03-31T07:00:39.457Z,80.98
2018-03-31T07:01:43.543Z,81.08
2018-03-31T07:02:48.618Z,81.10
2018-03-31T07:03:52.739Z,81.11
2018-03-31T07:04:56.864Z,81.06
2018-03-31T07:06:00.940Z,81.01
2018-03-31T07:07:05.047Z,81.06
2018-03-31T07:08:09.115Z,81.16
2018-03-31T07:09:13.945Z,81.21
2018-03-31T07:10:18.045Z,81.31
2018-03-31T07:11:22.666Z,81.45
2018-03-31T07:12:26.730Z,81.40
2018-03-31T07:13:30.808Z,81.09
2018-03-31T07:14:34.948Z,81.11
2018-03-31T07:15:39.792Z,81.05
2018-03-31T07:16:43.865Z,81.12
2018-03-31T07:17:47.925Z,81.20
2018-03-31T07:18:52.106Z,81.23
2018-03-31T07:19:56.178Z,81.37
2018-03-31T07:21:01.040Z,81.59
2018-03-31T07:22:05.129Z,81.66
2018-03-31T07:23:09.193Z,81.75
2018-03-31T07:24:13.259Z,81.99
2018-03-31T07:25:17.330Z,82.21
2018-03-31T07:26:22.406Z,82.38
2018-03-31T07:27:27.288Z,82.37
2018-03-31T07:28:31.372Z,82.21
2018-03-31T07:29:36.199Z,82.13
2018-03-31T07:30:40.265Z,82.19
2018-03-31T07:31:44.364Z,82.36
2018-03-31T07:32:48.435Z,82.35
2018-03-31T07:33:52.501Z,82.45
2018-03-31T07:34:56.560Z,82.48
2018-03-31T07:36:00.619Z,82.32
2018-03-31T07:37:04.724Z,82.21
2018-03-31T07:38:08.781Z,82.05
2018-03-31T07:39:13.354Z,82.00
2018-03-31T07:40:17.446Z,81.85
2018-03-31T07:41:21.515Z,81.75
2018-03-31T07:42:26.561Z,81.79
2018-03-31T07:43:30.616Z,81.82
2018-03-31T07:44:34.704Z,81.72
2018-03-31T07:45:38.776Z,81.69
2018-03-31T07:46:42.824Z,81.62
2018-03-31T07:47:48.426Z,81.76
2018-03-31T07:48:52.515Z,81.82
2018-03-31T07:49:56.566Z,81.82
2018-03-31T07:51:00.634Z,81.87
2018-03-31T07:52:04.732Z,81.89
2018-03-31T07:53:09.052Z,81.82
2018-03-31T07:54:13.131Z,81.82
2018-03-31T07:55:17.203Z,81.40
2018-03-31T07:56:22.155Z,81.38
2018-03-31T07:57:26.316Z,81.47
2018-03-31T07:58:30.408Z,81.68
2018-03-31T07:59:34.476Z,82.00
2018-03-31T08:00:38.539Z,82.17
2018-03-31T08:01:43.410Z,82.33
2018-03-31T08:02:47.499Z,82.28
2018-03-31T08:03:51.621Z,82.11
2018-03-31T08:04:55.696Z,81.71
2018-03-31T08:05:59.772Z,81.68
2018-03-31T08:07:04.614Z,81.70
2018-03-31T08:08:08.919Z,82.01
2018-03-31T08:09:13.059Z,82.20
2018-03-31T08:10:17.154Z,82.31
2018-03-31T08:11:21.222Z,82.34
2018-03-31T08:12:25.331Z,82.46
2018-03-31T08:13:29.412Z,82.47
2018-03-31T08:14:34.277Z,82.45
2018-03-31T08:15:38.366Z,82.24
2018-03-31T08:16:42.432Z,82.19
2018-03-31T08:17:46.484Z,82.26
2018-03-31T08:18:50.541Z,82.45
2018-03-31T08:19:55.419Z,82.56
2018-03-31T08:20:59.529Z,82.44
2018-03-31T08:22:04.375Z,82.20
2018-03-31T08:23:09.217Z,81.93
2018-03-31T08:24:13.311Z,81.58
2018-03-31T08:25:18.176Z,81.13
2018-03-31T08:26:22.247Z,80.86
2018-03-31T08:27:26.298Z,80.66
2018-03-31T08:28:30.369Z,80.48
2018-03-31T08:29:34.429Z,80.38
2018-03-31T08:30:39.292Z,80.32
2018-03-31T08:31:43.344Z,80.25
2018-03-31T08:32:48.178Z,80.09
2018-03-31T08:33:52.453Z,80.03
2018-03-31T08:34:56.528Z,80.12
2018-03-31T08:36:00.637Z,79.98
2018-03-31T08:37:04.710Z,79.89
2018-03-31T08:38:08.793Z,79.92
2018-03-31T08:39:13.613Z,79.87
2018-03-31T08:40:18.436Z,79.80
2018-03-31T08:41:23.298Z,79.71
2018-03-31T08:42:27.356Z,79.68
2018-03-31T08:43:31.957Z,79.78
2018-03-31T08:44:36.854Z,79.76
2018-03-31T08:45:40.913Z,79.72
2018-03-31T08:46:44.929Z,79.52
2018-03-31T08:47:48.774Z,79.29
2018-03-31T08:48:52.832Z,79.08
2018-03-31T08:49:56.891Z,79.11
2018-03-31T08:51:01.728Z,79.18
2018-03-31T08:52:05.815Z,79.34
2018-03-31T08:53:10.647Z,79.46
2018-03-31T08:54:14.704Z,79.64
2018-03-31T08:55:18.765Z,79.65
2018-03-31T08:56:23.075Z,79.71
2018-03-31T08:57:27.172Z,79.99
2018-03-31T08:58:31.238Z,80.08
2018-03-31T08:59:36.082Z,79.96
2018-03-31T09:00:40.904Z,79.93
2018-03-31T09:01:44.963Z,79.93
2018-03-31T09:02:49.048Z,79.74
2018-03-31T09:03:53.160Z,79.46
2018-03-31T09:04:57.389Z,79.38
2018-03-31T09:06:01.462Z,79.10
2018-03-31T09:07:05.609Z,78.48
2018-03-31T09:08:10.465Z,78.35
2018-03-31T09:09:14.543Z,78.51
2018-03-31T09:10:19.577Z,78.67
2018-03-31T09:11:23.669Z,78.90
2018-03-31T09:12:27.745Z,79.04
2018-03-31T09:13:31.824Z,78.84
2018-03-31T09:14:35.881Z,78.85
2018-03-31T09:15:39.933Z,78.80
2018-03-31T09:16:44.058Z,78.53
2018-03-31T09:17:48.297Z,78.09
2018-03-31T09:18:52.380Z,77.60
2018-03-31T09:19:57.221Z,77.55
2018-03-31T09:21:01.483Z,77.60
2018-03-31T09:22:05.325Z,77.69
2018-03-31T09:23:09.549Z,77.80
2018-03-31T09:24:13.423Z,78.06
2018-03-31T09:25:17.486Z,78.13
2018-03-31T09:26:21.622Z,78.18
2018-03-31T09:27:25.693Z,78.24
2018-03-31T09:28:30.541Z,78.17
2018-03-31T09:29:34.624Z,78.38
2018-03-31T09:30:39.446Z,78.29
2018-03-31T09:31:44.280Z,78.03
2018-03-31T09:32:48.336Z,77.68
2018-03-31T09:33:52.465Z,77.54
2018-03-31T09:34:56.656Z,77.51
2018-03-31T09:36:01.500Z,77.25
2018-03-31T09:37:06.326Z,77.24
2018-03-31T09:38:11.168Z,77.21
2018-03-31T09:39:15.237Z,77.13
2018-03-31T09:40:20.151Z,77.19
2018-03-31T09:41:24.201Z,77.23
2018-03-31T09:42:28.361Z,77.31
2018-03-31T09:43:32.425Z,77.25
2018-03-31T09:44:36.508Z,77.19
2018-03-31T09:45:40.622Z,77.14
2018-03-31T09:46:44.707Z,77.15
2018-03-31T09:47:49.797Z,77.14
2018-03-31T09:48:54.637Z,77.28
2018-03-31T09:49:59.239Z,77.36
2018-03-31T09:51:03.353Z,77.34
2018-03-31T09:52:07.428Z,77.24
2018-03-31T09:53:11.499Z,77.30
2018-03-31T09:54:15.565Z,77.35
2018-03-31T09:55:19.637Z,77.04
2018-03-31T09:56:24.471Z,76.80
2018-03-31T09:57:28.553Z,76.64
2018-03-31T09:58:32.639Z,76.55
2018-03-31T09:59:36.696Z,76.36
2018-03-31T10:00:40.757Z,76.23
2018-03-31T10:01:44.965Z,76.05
2018-03-31T10:02:49.024Z,75.74
2018-03-31T10:03:53.101Z,75.79
2018-03-31T10:04:57.545Z,75.84
2018-03-31T10:06:01.628Z,75.82
2018-03-31T10:07:05.721Z,75.59
2018-03-31T10:08:09.802Z,75.51
2018-03-31T10:09:14.620Z,75.62
2018-03-31T10:10:19.446Z,75.95
2018-03-31T10:11:24.283Z,76.08
2018-03-31T10:12:28.407Z,76.15
2018-03-31T10:13:33.389Z,76.07
2018-03-31T10:14:38.238Z,75.90
2018-03-31T10:15:42.305Z,75.43
2018-03-31T10:16:47.120Z,74.88
2018-03-31T10:17:51.990Z,75.00
2018-03-31T10:18:56.047Z,75.20
2018-03-31T10:20:00.890Z,75.34
2018-03-31T10:21:04.973Z,75.40
2018-03-31T10:22:09.790Z,75.22
2018-03-31T10:23:14.638Z,75.11
2018-03-31T10:24:18.933Z,74.80
2018-03-31T10:25:23.001Z,74.64
2018-03-31T10:26:27.063Z,74.63
2018-03-31T10:27:31.113Z,74.55
2018-03-31T10:28:36.011Z,74.57
2018-03-31T10:29:40.063Z,74.56
2018-03-31T10:30:44.117Z,74.64
2018-03-31T10:31:48.180Z,74.70
2018-03-31T10:32:52.240Z,74.76
2018-03-31T10:33:56.320Z,74.66
2018-03-31T10:35:01.040Z,74.29
2018-03-31T10:36:05.120Z,74.15
2018-03-31T10:37:09.187Z,74.11
2018-03-31T10:38:13.253Z,74.07
2018-03-31T10:39:18.845Z,74.02
2018-03-31T10:40:23.003Z,74.12
2018-03-31T10:41:27.217Z,74.03
2018-03-31T10:42:32.249Z,74.06
2018-03-31T10:43:36.320Z,74.06
2018-03-31T10:44:40.407Z,74.24
2018-03-31T10:45:44.461Z,74.08
2018-03-31T10:46:49.293Z,73.96
2018-03-31T10:47:53.343Z,73.95
2018-03-31T10:48:57.397Z,74.43
2018-03-31T10:50:01.485Z,74.39
2018-03-31T10:51:06.312Z,73.99
2018-03-31T10:52:10.466Z,73.27
2018-03-31T10:53:14.614Z,72.86
2018-03-31T10:54:19.436Z,72.90
2018-03-31T10:55:23.524Z,72.94
2018-03-31T10:56:28.377Z,73.09
2018-03-31T10:57:32.462Z,73.21
2018-03-31T10:58:36.567Z,73.21
2018-03-31T10:59:41.393Z,73.12
2018-03-31T11:00:45.508Z,72.83
2018-03-31T11:01:49.563Z,72.30
2018-03-31T11:02:54.404Z,71.89
2018-03-31T11:03:59.304Z,71.58
2018-03-31T11:05:04.964Z,71.60
2018-03-31T11:06:09.227Z,71.77
2018-03-31T11:07:13.312Z,71.60
2018-03-31T11:08:19.127Z,71.48
2018-03-31T11:09:23.415Z,71.49
2018-03-31T11:10:28.240Z,71.57
2018-03-31T11:11:33.283Z,71.77
2018-03-31T11:12:37.569Z,72.04
2018-03-31T11:13:43.243Z,71.96
2018-03-31T11:14:47.376Z,71.78
2018-03-31T11:15:51.440Z,71.53
2018-03-31T11:16:56.613Z,71.46
2018-03-31T11:18:00.680Z,71.55
2018-03-31T11:19:04.798Z,71.43
2018-03-31T11:20:09.085Z,71.49
2018-03-31T11:21:13.194Z,71.40
2018-03-31T11:22:17.112Z,71.24
2018-03-31T11:23:21.195Z,71.15
2018-03-31T11:24:25.366Z,71.04
2018-03-31T11:25:29.459Z,70.71
2018-03-31T11:26:34.453Z,70.37
2018-03-31T11:27:39.726Z,70.45
2018-03-31T11:28:44.674Z,70.74
2018-03-31T11:29:48.820Z,70.86
2018-03-31T11:30:52.890Z,70.82
2018-03-31T11:31:57.162Z,70.93
2018-03-31T11:33:01.423Z,70.99
2018-03-31T11:34:05.584Z,70.95
2018-03-31T11:35:09.657Z,70.80
2018-03-31T11:36:14.481Z,70.77
2018-03-31T11:37:19.583Z,70.86
2018-03-31T11:38:23.633Z,70.74
2018-03-31T11:39:27.899Z,70.46
2018-03-31T11:40:32.815Z,70.32
2018-03-31T11:41:37.672Z,70.21
2018-03-31T11:42:41.505Z,69.75
2018-03-31T11:43:45.335Z,69.32
2018-03-31T11:44:49.410Z,69.35
2018-03-31T11:45:53.469Z,69.27
2018-03-31T11:46:57.534Z,69.04
2018-03-31T11:48:01.615Z,68.84
2018-03-31T11:49:05.676Z,68.72
2018-03-31T11:50:09.861Z,68.61
2018-03-31T11:51:14.705Z,68.85
2018-03-31T11:52:18.868Z,69.04
2018-03-31T11:53:22.940Z,69.12
2018-03-31T11:54:27.046Z,69.29
2018-03-31T11:55:31.136Z,69.27
2018-03-31T11:56:35.208Z,69.22
2018-03-31T11:57:40.029Z,69.34
2018-03-31T11:58:44.870Z,69.25
2018-03-31T11:59:48.944Z,69.29
2018-03-31T12:00:53.574Z,69.35
2018-03-31T12:01:58.583Z,69.11
2018-03-31T12:03:03.410Z,68.53
2018-03-31T12:04:08.280Z,68.27
2018-03-31T12:05:12.343Z,68.32
2018-03-31T12:06:16.428Z,68.60
2018-03-31T12:07:21.266Z,68.75
2018-03-31T12:08:25.553Z,68.87
2018-03-31T12:09:30.410Z,68.85
2018-03-31T12:10:34.468Z,68.98
2018-03-31T12:11:39.339Z,69.15
2018-03-31T12:12:43.406Z,69.27
2018-03-31T12:13:47.270Z,69.38
2018-03-31T12:14:51.373Z,69.44
2018-03-31T12:15:55.441Z,69.33
2018-03-31T12:16:59.513Z,69.32
2018-03-31T12:18:04.341Z,69.32
2018-03-31T12:19:08.400Z,69.32
2018-03-31T12:20:13.363Z,69.38
2018-03-31T12:21:17.421Z,69.26
2018-03-31T12:22:21.485Z,69.20
2018-03-31T12:23:25.537Z,68.95
2018-03-31T12:24:29.600Z,68.89
2018-03-31T12:25:33.689Z,68.87
2018-03-31T12:26:37.736Z,68.69
2018-03-31T12:27:41.797Z,68.43
2018-03-31T12:28:45.884Z,68.09
2018-03-31T12:29:49.944Z,67.57
2018-03-31T12:30:54.041Z,67.07
2018-03-31T12:31:58.097Z,66.91
2018-03-31T12:33:02.166Z,67.00
2018-03-31T12:34:06.985Z,67.34
2018-03-31T12:35:11.813Z,67.62
2018-03-31T12:36:16.695Z,67.78
2018-03-31T12:37:21.594Z,67.79
2018-03-31T12:38:25.669Z,67.80
2018-03-31T12:39:29.708Z,68.32
2018-03-31T12:40:34.532Z,68.49
2018-03-31T12:41:39.380Z,68.69
2018-03-31T12:42:43.437Z,68.65
2018-03-31T12:43:47.502Z,68.46
2018-03-31T12:44:51.581Z,68.46
2018-03-31T12:45:55.663Z,68.62
2018-03-31T12:47:00.520Z,68.78
2018-03-31T12:48:04.588Z,68.71
2018-03-31T12:49:08.671Z,68.61
2018-03-31T12:50:13.537Z,68.31
2018-03-31T12:51:17.624Z,67.65
2018-03-31T12:52:21.726Z,67.29
2018-03-31T12:53:25.800Z,66.90
2018-03-31T12:54:30.637Z,66.68
2018-03-31T12:55:34.718Z,66.40
2018-03-31T12:56:38.835Z,66.28
2018-03-31T12:57:42.920Z,65.97
2018-03-31T12:58:47.027Z,65.79
2018-03-31T12:59:51.082Z,65.80
2018-03-31T13:00:54.921Z,65.73
2018-03-31T13:01:58.976Z,65.73
2018-03-31T13:03:03.054Z,65.85
2018-03-31T13:04:07.872Z,65.93
2018-03-31T13:05:12.692Z,65.72
2018-03-31T13:06:16.770Z,65.76
2018-03-31T13:07:20.836Z,65.53
2018-03-31T13:08:24.938Z,65.40
2018-03-31T13:09:29.017Z,65.29
2018-03-31T13:10:33.072Z,65.21
2018-03-31T13:11:37.142Z,65.13
2018-03-31T13:12:41.258Z,65.11
2018-03-31T13:13:45.366Z,64.89
2018-03-31T13:14:49.293Z,64.68
2018-03-31T13:15:53.464Z,64.52
2018-03-31T13:16:58.433Z,64.30
2018-03-31T13:18:02.651Z,64.06
2018-03-31T13:19:07.032Z,63.88
2018-03-31T13:20:11.175Z,63.66
2018-03-31T13:21:15.281Z,63.28
2018-03-31T13:22:19.343Z,63.11
2018-03-31T13:23:24.163Z,63.20
2018-03-31T13:24:29.140Z,62.62
2018-03-31T13:25:33.459Z,62.27
2018-03-31T13:26:37.748Z,62.37
2018-03-31T13:27:42.077Z,62.17
2018-03-31T13:28:47.161Z,61.97
2018-03-31T13:29:51.440Z,62.05
2018-03-31T13:30:55.776Z,62.11
2018-03-31T13:32:00.598Z,62.07
2018-03-31T13:33:05.044Z,61.98
2018-03-31T13:34:09.287Z,61.81
2018-03-31T13:35:13.579Z,62.19
2018-03-31T13:36:17.764Z,62.29
2018-03-31T13:37:22.046Z,62.17
2018-03-31T13:38:26.274Z,61.95
2018-03-31T13:39:30.552Z,61.59
2018-03-31T13:40:34.805Z,61.53
2018-03-31T13:41:38.992Z,61.47
2018-03-31T13:42:43.229Z,61.46
2018-03-31T13:43:48.193Z,61.31
2018-03-31T13:44:52.453Z,61.04
2018-03-31T13:45:57.320Z,60.52
2018-03-31T13:47:01.373Z,60.25
2018-03-31T13:48:06.109Z,59.73
2018-03-31T13:49:10.407Z,59.72